createdAt,value
2019-06-26T00:02:20.334Z,6.50
2019-06-26T00:04:48.735Z,10.13
2019-06-26T00:07:17.147Z,11.20
2019-06-26T00:09:45.629Z,9.88
2019-06-26T00:12:14.038Z,16.67
2019-06-26T00:14:42.739Z,13.25
2019-06-26T00:17:11.191Z,15.23
2019-06-26T00:19:39.599Z,19.20
2019-06-26T00:22:08.005Z,17.20
2019-06-26T00:24:36.426Z,17.73
2019-06-26T00:27:04.843Z,14.85
2019-06-26T00:29:33.255Z,13.45
2019-06-26T00:32:01.708Z,15.93
2019-06-26T00:34:30.230Z,15.38
2019-06-26T00:36:58.670Z,13.00
2019-06-26T00:39:27.074Z,12.65
2019-06-26T00:41:55.481Z,16.10
2019-06-26T00:44:23.891Z,11.97
2019-06-26T00:46:52.323Z,13.70
2019-06-26T00:49:20.762Z,11.57
2019-06-26T00:51:49.310Z,15.98
2019-06-26T00:54:17.735Z,15.23
2019-06-26T00:56:46.141Z,19.00
2019-06-26T00:59:14.577Z,11.37
2019-06-26T01:01:43.338Z,11.53
2019-06-26T01:04:13.402Z,15.60
2019-06-26T01:06:44.503Z,9.58
2019-06-26T01:09:14.279Z,12.90
2019-06-26T01:11:43.283Z,12.70
2019-06-26T01:14:12.231Z,11.68
2019-06-26T01:16:40.715Z,10.38
2019-06-26T01:19:09.344Z,15.03
2019-06-26T01:21:37.768Z,8.20
2019-06-26T01:24:06.183Z,10.63
2019-06-26T01:26:34.931Z,9.38
2019-06-26T01:29:03.426Z,9.78
2019-06-26T01:31:31.838Z,11.70
2019-06-26T01:34:00.251Z,8.95
2019-06-26T01:36:28.661Z,9.43
2019-06-26T01:38:57.067Z,11.68
2019-06-26T01:41:25.477Z,10.13
2019-06-26T01:43:53.907Z,11.45
2019-06-26T01:46:22.311Z,9.73
2019-06-26T01:48:50.804Z,10.32
2019-06-26T01:51:19.323Z,9.57
2019-06-26T01:53:47.739Z,9.38
2019-06-26T01:56:16.153Z,10.07
2019-06-26T01:58:44.748Z,12.55
2019-06-26T02:01:13.210Z,15.35
2019-06-26T02:03:41.336Z,12.82
2019-06-26T02:06:10.041Z,10.72
2019-06-26T02:08:38.450Z,9.68
2019-06-26T02:11:06.864Z,10.38
2019-06-26T02:13:35.280Z,11.00
2019-06-26T02:16:03.859Z,10.63
2019-06-26T02:18:36.646Z,10.78
2019-06-26T02:21:05.150Z,12.98
2019-06-26T02:23:34.269Z,11.22
2019-06-26T02:26:02.902Z,11.35
2019-06-26T02:28:31.464Z,13.70
2019-06-26T02:30:59.916Z,12.20
2019-06-26T02:33:28.391Z,13.20
2019-06-26T02:35:56.820Z,10.40
2019-06-26T02:38:25.231Z,10.17
2019-06-26T02:40:53.648Z,11.03
2019-06-26T02:43:22.324Z,10.03
2019-06-26T02:45:50.748Z,10.53
2019-06-26T02:48:19.197Z,9.65
2019-06-26T02:50:47.607Z,11.15
2019-06-26T02:53:16.087Z,10.88
2019-06-26T02:55:44.489Z,10.63
2019-06-26T02:58:12.891Z,10.60
2019-06-26T03:00:41.322Z,10.73
2019-06-26T03:03:09.806Z,12.88
2019-06-26T03:05:38.202Z,9.83
2019-06-26T03:08:06.609Z,9.88
2019-06-26T03:10:35.023Z,10.53
2019-06-26T03:13:03.496Z,9.78
2019-06-26T03:15:31.909Z,12.15
2019-06-26T03:18:00.319Z,11.18
2019-06-26T03:20:31.897Z,11.30
2019-06-26T03:23:00.367Z,10.15
2019-06-26T03:25:28.865Z,10.28
2019-06-26T03:27:57.326Z,10.60
2019-06-26T03:30:25.802Z,9.63
2019-06-26T03:32:54.226Z,12.50
2019-06-26T03:35:22.637Z,10.35
2019-06-26T03:37:51.039Z,10.45
2019-06-26T03:40:19.608Z,11.50
2019-06-26T03:42:48.095Z,13.53
2019-06-26T03:45:25.798Z,11.03
2019-06-26T03:47:46.922Z,10.83
2019-06-26T03:50:15.686Z,11.37
2019-06-26T03:52:44.167Z,11.85
2019-06-26T03:55:12.728Z,14.37
2019-06-26T03:57:41.139Z,13.28
2019-06-26T04:00:11.491Z,13.30
2019-06-26T04:02:39.955Z,12.77
2019-06-26T04:05:08.462Z,12.88
2019-06-26T04:07:36.867Z,15.00
2019-06-26T04:10:06.915Z,16.97
2019-06-26T04:12:35.378Z,14.23
2019-06-26T04:15:05.705Z,14.50
2019-06-26T04:17:34.139Z,15.93
2019-06-26T04:20:02.702Z,16.87
2019-06-26T04:22:31.190Z,16.50
2019-06-26T04:24:59.624Z,17.40
2019-06-26T04:27:28.041Z,17.70
2019-06-26T04:29:56.443Z,17.37
2019-06-26T04:32:24.888Z,17.60
2019-06-26T04:34:54.564Z,22.63
2019-06-26T04:37:23.091Z,17.55
2019-06-26T04:39:51.506Z,19.55
2019-06-26T04:42:19.944Z,17.57
2019-06-26T04:44:48.349Z,19.60
2019-06-26T04:47:16.796Z,21.50
2019-06-26T04:49:45.204Z,21.23
2019-06-26T04:52:13.645Z,20.68
2019-06-26T04:54:42.081Z,18.37
2019-06-26T04:57:10.491Z,21.90
2019-06-26T04:59:38.913Z,19.37
2019-06-26T05:02:07.354Z,19.67
2019-06-26T05:04:35.772Z,16.27
2019-06-26T05:07:04.252Z,21.00
2019-06-26T05:09:32.678Z,21.57
2019-06-26T05:12:01.091Z,17.67
2019-06-26T05:14:29.523Z,18.62
2019-06-26T05:16:58.198Z,20.37
2019-06-26T05:19:26.632Z,18.20
2019-06-26T05:21:55.299Z,22.40
2019-06-26T05:24:23.738Z,21.05
2019-06-26T05:26:52.408Z,20.43
2019-06-26T05:29:21.107Z,19.95
2019-06-26T05:31:49.550Z,20.85
2019-06-26T05:34:17.958Z,20.62
2019-06-26T05:36:46.366Z,22.67
2019-06-26T05:39:14.808Z,23.00
2019-06-26T05:41:43.223Z,20.80
2019-06-26T05:44:11.703Z,20.57
2019-06-26T05:46:40.316Z,22.02
2019-06-26T05:49:08.853Z,23.23
2019-06-26T05:51:37.326Z,23.00
2019-06-26T05:54:05.782Z,22.77
2019-06-26T05:56:34.195Z,21.65
2019-06-26T05:59:02.641Z,23.07
2019-06-26T06:01:31.118Z,25.60
2019-06-26T06:03:59.523Z,26.82
2019-06-26T06:06:41.042Z,24.77
2019-06-26T06:08:58.379Z,25.27
2019-06-26T06:11:26.794Z,23.55
2019-06-26T06:13:55.282Z,28.57
2019-06-26T06:16:23.707Z,25.90
2019-06-26T06:18:52.120Z,29.10
2019-06-26T06:21:20.531Z,26.37
2019-06-26T06:23:48.948Z,32.40
2019-06-26T06:26:17.342Z,29.33
2019-06-26T06:28:45.762Z,31.25
2019-06-26T06:31:14.219Z,31.57
2019-06-26T06:33:43.980Z,29.60
2019-06-26T06:36:12.391Z,31.75
2019-06-26T06:38:40.854Z,32.10
2019-06-26T06:41:09.278Z,30.92
2019-06-26T06:43:37.699Z,29.42
2019-06-26T06:46:06.150Z,29.02
2019-06-26T06:48:34.572Z,30.88
2019-06-26T06:51:02.988Z,34.03
2019-06-26T06:53:31.423Z,31.60
2019-06-26T06:55:59.847Z,27.52
2019-06-26T06:58:30.233Z,35.03
2019-06-26T07:00:58.417Z,30.27
2019-06-26T07:03:26.895Z,32.33
2019-06-26T07:05:55.315Z,32.55
2019-06-26T07:08:23.756Z,34.63
2019-06-26T07:10:52.173Z,33.83
2019-06-26T07:13:20.587Z,33.75
2019-06-26T07:15:49.006Z,36.63
2019-06-26T07:18:17.579Z,35.15
2019-06-26T07:20:46.089Z,33.92
2019-06-26T07:23:14.494Z,38.05
2019-06-26T07:25:42.980Z,31.42
2019-06-26T07:28:11.478Z,32.78
2019-06-26T07:30:40.056Z,32.53
2019-06-26T07:33:08.579Z,32.85
2019-06-26T07:35:36.986Z,31.00
2019-06-26T07:38:05.422Z,35.68
2019-06-26T07:40:33.915Z,33.20
2019-06-26T07:43:02.455Z,30.20
2019-06-26T07:45:30.879Z,28.75
2019-06-26T07:47:59.315Z,32.50
2019-06-26T07:50:27.722Z,25.48
2019-06-26T07:52:56.135Z,27.50
2019-06-26T07:55:24.589Z,21.57
2019-06-26T07:57:53.005Z,18.80
2019-06-26T08:00:22.442Z,15.45
2019-06-26T08:02:50.854Z,16.17
2019-06-26T08:05:19.468Z,17.80
2019-06-26T08:07:47.975Z,18.17
2019-06-26T08:10:17.716Z,17.62
2019-06-26T08:12:46.185Z,18.98
2019-06-26T08:15:14.941Z,15.85
2019-06-26T08:17:59.114Z,18.00
2019-06-26T08:20:15.307Z,16.23
2019-06-26T08:22:43.706Z,13.98
2019-06-26T08:25:13.249Z,13.25
2019-06-26T08:27:41.695Z,12.73
2019-06-26T08:30:10.710Z,14.33
2019-06-26T08:32:39.130Z,22.70
2019-06-26T08:35:07.797Z,22.22
2019-06-26T08:37:36.215Z,16.80
2019-06-26T08:40:06.663Z,14.30
2019-06-26T08:42:35.154Z,15.60
2019-06-26T08:45:04.524Z,19.50
2019-06-26T08:47:32.934Z,15.05
2019-06-26T08:50:01.349Z,16.97
2019-06-26T08:52:29.760Z,13.03
2019-06-26T08:54:58.174Z,15.65
2019-06-26T08:57:26.582Z,13.65
2019-06-26T08:59:54.983Z,12.07
2019-06-26T09:02:23.390Z,12.33
2019-06-26T09:04:51.824Z,15.18
2019-06-26T09:07:20.235Z,17.85
2019-06-26T09:09:48.637Z,13.22
2019-06-26T09:12:17.132Z,14.18
2019-06-26T09:14:45.558Z,12.23
2019-06-26T09:17:13.952Z,10.65
2019-06-26T09:19:42.378Z,15.20
2019-06-26T09:22:10.783Z,17.00
2019-06-26T09:24:39.187Z,13.93
2019-06-26T09:27:08.007Z,12.78
2019-06-26T09:29:36.395Z,15.95
2019-06-26T09:32:04.874Z,10.18
2019-06-26T09:34:33.283Z,13.03
2019-06-26T09:37:01.701Z,10.32
2019-06-26T09:39:30.102Z,13.80
2019-06-26T09:41:58.523Z,11.88
2019-06-26T09:44:26.922Z,13.30
2019-06-26T09:46:55.351Z,11.25
2019-06-26T09:49:23.829Z,14.33
2019-06-26T09:51:52.223Z,11.18
2019-06-26T09:54:20.625Z,12.07
2019-06-26T09:56:49.062Z,11.93
2019-06-26T09:59:17.534Z,15.05
2019-06-26T10:01:45.943Z,15.25
2019-06-26T10:04:14.398Z,10.78
2019-06-26T10:06:42.854Z,14.23
2019-06-26T10:09:11.276Z,10.90
2019-06-26T10:11:39.681Z,10.80
2019-06-26T10:14:08.080Z,10.78
2019-06-26T10:16:36.523Z,10.72
2019-06-26T10:19:09.913Z,11.22
2019-06-26T10:21:35.110Z,12.50
2019-06-26T10:24:03.539Z,16.17
2019-06-26T10:26:32.673Z,10.70
2019-06-26T10:29:01.599Z,9.30
2019-06-26T10:31:30.098Z,11.15
2019-06-26T10:33:58.727Z,13.35
2019-06-26T10:36:27.135Z,17.67
2019-06-26T10:38:55.552Z,16.55
2019-06-26T10:41:23.976Z,9.48
2019-06-26T10:43:52.477Z,12.00
2019-06-26T10:46:20.966Z,8.55
2019-06-26T10:48:49.379Z,8.35
2019-06-26T10:51:17.782Z,7.95
2019-06-26T10:53:46.187Z,9.28
2019-06-26T10:56:14.763Z,8.10
2019-06-26T10:58:43.177Z,7.65
2019-06-26T11:01:11.592Z,9.53
2019-06-26T11:03:40.063Z,8.80
2019-06-26T11:06:08.463Z,9.10
2019-06-26T11:08:36.870Z,10.03
2019-06-26T11:11:05.283Z,9.50
2019-06-26T11:13:33.699Z,8.55
2019-06-26T11:16:02.106Z,11.20
2019-06-26T11:18:30.494Z,8.98
2019-06-26T11:20:58.907Z,8.50
2019-06-26T11:23:27.314Z,9.58
2019-06-26T11:25:55.711Z,8.25
2019-06-26T11:28:24.154Z,9.10
2019-06-26T11:30:52.990Z,7.50
2019-06-26T11:33:21.402Z,6.30
2019-06-26T11:35:49.946Z,7.37
2019-06-26T11:38:18.344Z,7.30
2019-06-26T11:40:46.742Z,8.53
2019-06-26T11:43:15.230Z,7.10
2019-06-26T11:45:43.722Z,8.43
2019-06-26T11:48:12.126Z,8.03
2019-06-26T11:50:40.558Z,7.83
2019-06-26T11:53:08.994Z,6.28
2019-06-26T11:55:37.390Z,4.72
2019-06-26T11:58:05.818Z,7.33
2019-06-26T12:00:34.235Z,7.97
2019-06-26T12:03:02.614Z,8.60
2019-06-26T12:05:31.038Z,14.50
2019-06-26T12:07:59.450Z,12.75
2019-06-26T12:10:27.846Z,14.38
2019-06-26T12:12:56.324Z,10.95
2019-06-26T12:15:25.217Z,13.03
2019-06-26T12:17:53.616Z,18.35
2019-06-26T12:20:22.030Z,17.40
2019-06-26T12:22:50.467Z,15.63
2019-06-26T12:25:18.937Z,17.65
2019-06-26T12:27:47.354Z,15.95
2019-06-26T12:30:16.113Z,18.55
2019-06-26T12:33:01.618Z,14.87
2019-06-26T12:35:14.921Z,16.17
2019-06-26T12:37:43.337Z,14.95
2019-06-26T12:40:12.085Z,13.10
2019-06-26T12:42:40.502Z,16.25
2019-06-26T12:45:09.645Z,12.82
2019-06-26T12:47:38.052Z,13.25
2019-06-26T12:50:07.799Z,14.55
2019-06-26T12:52:36.271Z,15.43
2019-06-26T12:55:06.278Z,16.35
2019-06-26T12:57:34.851Z,18.17
2019-06-26T13:00:12.320Z,12.85
2019-06-26T13:02:40.796Z,15.63
2019-06-26T13:05:09.734Z,14.63
2019-06-26T13:07:38.139Z,15.58
2019-06-26T13:10:07.894Z,14.47
2019-06-26T13:12:36.809Z,19.12
2019-06-26T13:15:07.163Z,13.70
2019-06-26T13:17:35.754Z,12.78
2019-06-26T13:20:09.992Z,11.80
2019-06-26T13:22:38.137Z,14.35
2019-06-26T13:27:47.043Z,13.70
2019-06-26T13:30:17.074Z,12.80
2019-06-26T13:32:45.518Z,11.88
2019-06-26T13:35:14.046Z,13.48
2019-06-26T13:37:42.455Z,13.05
2019-06-26T13:40:10.938Z,12.40
2019-06-26T13:42:39.355Z,14.23
2019-06-26T13:45:09.307Z,13.75
2019-06-26T13:47:37.702Z,13.08
2019-06-26T13:50:07.864Z,12.88
2019-06-26T13:52:36.267Z,12.15
2019-06-26T13:55:05.659Z,14.25
2019-06-26T13:57:34.107Z,14.05
2019-06-26T14:00:02.890Z,12.45
2019-06-26T14:02:31.307Z,13.85
2019-06-26T14:04:59.738Z,11.53
2019-06-26T14:07:28.136Z,11.95
2019-06-26T14:09:56.566Z,13.40
2019-06-26T14:12:25.026Z,16.12
2019-06-26T14:14:57.770Z,12.43
2019-06-26T14:17:23.573Z,10.95
2019-06-26T14:19:51.974Z,9.35
2019-06-26T14:22:20.396Z,9.55
2019-06-26T14:24:48.846Z,9.98
2019-06-26T14:27:17.279Z,11.78
2019-06-26T14:29:45.700Z,8.75
2019-06-26T14:32:14.072Z,8.10
2019-06-26T14:34:42.475Z,9.98
2019-06-26T14:37:10.894Z,8.38
2019-06-26T14:39:41.055Z,8.75
2019-06-26T14:42:09.835Z,11.05
2019-06-26T14:44:38.273Z,11.63
2019-06-26T14:47:06.676Z,11.90
2019-06-26T14:49:35.082Z,9.88
2019-06-26T14:52:03.507Z,12.33
2019-06-26T14:54:31.910Z,14.78
2019-06-26T14:57:00.315Z,13.35
2019-06-26T14:59:28.740Z,12.80
2019-06-26T15:01:57.154Z,12.50
2019-06-26T15:04:25.634Z,13.83
2019-06-26T15:06:54.070Z,11.65
2019-06-26T15:09:22.474Z,11.38
2019-06-26T15:11:50.887Z,10.23
2019-06-26T15:14:19.299Z,9.93
2019-06-26T15:16:47.715Z,11.28
2019-06-26T15:19:16.119Z,10.68
2019-06-26T15:21:57.493Z,9.18
2019-06-26T15:24:15.024Z,9.95
2019-06-26T15:26:43.465Z,15.20
2019-06-26T15:29:11.907Z,11.20
2019-06-26T15:31:40.311Z,11.25
2019-06-26T15:34:08.716Z,9.95
2019-06-26T15:36:37.125Z,8.53
2019-06-26T15:39:07.370Z,11.97
2019-06-26T15:41:36.079Z,12.73
2019-06-26T15:44:05.631Z,10.75
2019-06-26T15:46:34.082Z,9.93
2019-06-26T15:49:02.511Z,14.80
2019-06-26T15:51:31.359Z,9.60
2019-06-26T15:54:00.137Z,9.33
2019-06-26T15:56:28.734Z,10.20
2019-06-26T15:58:57.161Z,9.73
2019-06-26T16:01:25.566Z,10.03
2019-06-26T16:03:53.994Z,11.38
2019-06-26T16:06:22.390Z,7.53
2019-06-26T16:08:50.815Z,8.73
2019-06-26T16:11:19.190Z,8.10
2019-06-26T16:13:47.607Z,13.88
2019-06-26T16:16:16.187Z,9.93
2019-06-26T16:19:01.940Z,9.10
2019-06-26T16:21:30.332Z,7.58
2019-06-26T16:23:58.735Z,13.62
2019-06-26T16:26:27.139Z,6.75
2019-06-26T16:28:55.557Z,8.08
2019-06-26T16:31:23.958Z,8.30
2019-06-26T16:33:52.360Z,6.83
2019-06-26T16:36:20.787Z,5.90
2019-06-26T16:38:49.182Z,8.70
2019-06-26T16:41:17.590Z,9.23
2019-06-26T16:43:45.998Z,6.90
2019-06-26T16:46:14.390Z,8.98
2019-06-26T16:48:42.857Z,6.47
2019-06-26T16:51:11.332Z,8.10
2019-06-26T16:53:39.774Z,8.85
2019-06-26T16:56:08.214Z,8.18
2019-06-26T16:58:36.650Z,12.78
2019-06-26T17:01:06.036Z,9.58
2019-06-26T17:03:34.480Z,7.20
2019-06-26T17:06:02.878Z,7.33
2019-06-26T17:08:31.286Z,11.28
2019-06-26T17:10:59.702Z,7.85
2019-06-26T17:13:28.119Z,11.22
2019-06-26T17:15:56.529Z,10.48
2019-06-26T17:18:24.943Z,8.83
2019-06-26T17:20:53.351Z,8.98
2019-06-26T17:23:21.758Z,9.90
2019-06-26T17:25:50.186Z,8.28
2019-06-26T17:28:18.871Z,8.45
2019-06-26T17:30:47.283Z,8.28
2019-06-26T17:33:15.709Z,10.15
2019-06-26T17:44:28.266Z,8.40
2019-06-26T17:46:56.726Z,8.28
2019-06-26T17:49:25.168Z,7.75
2019-06-26T17:51:53.570Z,9.88
2019-06-26T17:54:22.017Z,4.95
2019-06-26T17:56:50.478Z,6.05
2019-06-26T17:59:18.907Z,7.10
2019-06-26T18:01:47.325Z,5.22
2019-06-26T18:04:15.875Z,5.75
2019-06-26T18:06:44.301Z,7.25
2019-06-26T18:09:12.727Z,6.25
2019-06-26T18:11:41.182Z,11.43
2019-06-26T18:14:09.598Z,8.15
2019-06-26T18:16:38.007Z,5.97
2019-06-26T18:19:06.410Z,7.10
2019-06-26T18:21:34.898Z,10.45
2019-06-26T18:24:03.300Z,10.10
2019-06-26T18:26:31.702Z,6.20
2019-06-26T18:29:00.175Z,6.30
2019-06-26T18:31:30.661Z,5.55
2019-06-26T18:33:58.711Z,9.28
2019-06-26T18:36:27.119Z,10.40
2019-06-26T18:38:55.519Z,8.68
2019-06-26T18:41:23.923Z,12.63
2019-06-26T18:43:52.326Z,8.60
2019-06-26T18:46:20.742Z,7.92
2019-06-26T18:48:49.147Z,6.85
2019-06-26T18:51:17.551Z,7.47
2019-06-26T18:53:53.661Z,7.50
2019-06-26T18:56:16.643Z,6.87
2019-06-26T18:58:45.052Z,7.12
2019-06-26T19:01:13.460Z,9.58
2019-06-26T19:03:41.866Z,8.10
2019-06-26T19:06:10.275Z,7.37
2019-06-26T19:08:38.703Z,6.97
2019-06-26T19:11:07.111Z,9.03
2019-06-26T19:13:35.553Z,6.72
2019-06-26T19:16:04.721Z,7.53
2019-06-26T19:18:33.241Z,8.28
2019-06-26T19:21:01.651Z,7.78
2019-06-26T19:23:30.046Z,6.60
2019-06-26T19:25:58.119Z,6.70
2019-06-26T19:28:26.527Z,5.87
2019-06-26T19:30:54.944Z,7.67
2019-06-26T19:33:23.367Z,5.83
2019-06-26T19:35:51.907Z,5.90
2019-06-26T19:38:20.011Z,7.45
2019-06-26T19:40:48.413Z,5.00
2019-06-26T19:43:16.819Z,5.05
2019-06-26T19:45:45.255Z,5.35
2019-06-26T19:48:13.657Z,5.62
2019-06-26T19:50:42.066Z,5.60
2019-06-26T19:53:10.487Z,5.10
2019-06-26T19:55:38.886Z,5.73
2019-06-26T19:58:07.291Z,5.77
2019-06-26T20:00:35.724Z,4.75
2019-06-26T20:03:04.125Z,5.25
2019-06-26T20:05:32.528Z,4.30
2019-06-26T20:08:00.954Z,6.15
2019-06-26T20:10:29.015Z,4.80
2019-06-26T20:12:57.423Z,4.78
2019-06-26T20:15:25.846Z,4.17
2019-06-26T20:17:54.244Z,5.27
2019-06-26T20:20:22.652Z,4.58
2019-06-26T20:22:51.051Z,4.37
2019-06-26T20:25:19.803Z,6.00
2019-06-26T20:27:48.202Z,2.83
2019-06-26T20:30:19.683Z,3.60
2019-06-26T20:32:47.750Z,4.50
2019-06-26T20:35:16.226Z,5.37
2019-06-26T20:37:44.638Z,7.70
2019-06-26T20:40:13.382Z,3.10
2019-06-26T20:42:41.784Z,5.20
2019-06-26T20:45:10.823Z,4.80
2019-06-26T20:47:39.224Z,5.80
2019-06-26T20:50:07.867Z,4.10
2019-06-26T20:52:36.356Z,2.70
2019-06-26T20:55:08.407Z,5.83
2019-06-26T20:57:36.884Z,2.97
2019-06-26T21:00:09.197Z,6.97
2019-06-26T21:02:37.670Z,4.37
2019-06-26T21:05:07.012Z,6.03
2019-06-26T21:07:35.424Z,8.23
2019-06-26T21:10:04.663Z,5.43
2019-06-26T21:12:32.732Z,5.40
2019-06-26T21:15:01.141Z,4.53
2019-06-26T21:17:29.539Z,6.23
2019-06-26T21:19:57.947Z,7.50
2019-06-26T21:22:26.366Z,9.87
2019-06-26T21:24:54.766Z,4.90
2019-06-26T21:27:23.242Z,8.10
2019-06-26T21:29:51.319Z,7.20
2019-06-26T21:32:19.724Z,5.47
2019-06-26T21:34:48.141Z,6.03
2019-06-26T21:37:16.558Z,7.70
2019-06-26T21:39:44.957Z,5.60
2019-06-26T21:42:13.355Z,4.53
2019-06-26T21:44:41.767Z,7.93
2019-06-26T21:47:10.178Z,8.17
2019-06-26T21:49:38.333Z,5.87
2019-06-26T21:52:06.575Z,7.67
2019-06-26T21:54:35.030Z,3.90
2019-06-26T21:57:03.475Z,4.00
2019-06-26T21:59:31.870Z,5.60
2019-06-26T22:02:00.303Z,5.57
2019-06-26T22:04:28.772Z,5.33
2019-06-26T22:06:57.177Z,6.97
2019-06-26T22:09:25.582Z,6.27
2019-06-26T22:11:53.987Z,5.63
2019-06-26T22:14:22.392Z,5.33
2019-06-26T22:16:50.877Z,7.23
2019-06-26T22:19:19.277Z,3.43
2019-06-26T22:21:47.680Z,5.67
2019-06-26T22:24:16.335Z,4.67
2019-06-26T22:26:44.767Z,6.80
2019-06-26T22:29:13.151Z,7.03
2019-06-26T22:31:41.567Z,5.60
2019-06-26T22:34:10.070Z,3.60
2019-06-26T22:36:38.470Z,8.70
2019-06-26T22:39:07.058Z,8.10
2019-06-26T22:41:35.458Z,4.63
2019-06-26T22:44:03.870Z,6.93
2019-06-26T22:46:32.311Z,4.73
2019-06-26T22:49:00.707Z,7.40
2019-06-26T22:51:29.131Z,6.73
2019-06-26T22:53:57.618Z,6.10
2019-06-26T22:56:26.115Z,8.37
2019-06-26T22:58:54.168Z,5.00
2019-06-26T23:01:22.562Z,10.30
2019-06-26T23:03:50.648Z,8.07
2019-06-26T23:06:19.114Z,5.00
2019-06-26T23:08:47.546Z,7.63
2019-06-26T23:11:15.945Z,9.00
2019-06-26T23:13:44.407Z,9.60
2019-06-26T23:16:12.879Z,5.37
2019-06-26T23:18:41.281Z,4.77
2019-06-26T23:21:09.346Z,6.27
2019-06-26T23:23:37.755Z,7.27
2019-06-26T23:26:06.158Z,5.03
2019-06-26T23:28:34.579Z,6.40
2019-06-26T23:31:03.000Z,9.20
2019-06-26T23:33:31.393Z,8.27
2019-06-26T23:35:59.790Z,9.37
2019-06-26T23:38:28.215Z,7.57
2019-06-26T23:40:56.614Z,6.63
2019-06-26T23:43:25.033Z,6.90
2019-06-26T23:45:53.447Z,7.60
2019-06-26T23:48:21.864Z,5.50
2019-06-26T23:50:50.276Z,8.27
2019-06-26T23:53:18.706Z,12.57
2019-06-26T23:55:47.100Z,6.83
2019-06-26T23:58:15.507Z,5.57
